Time;durP1;ratioP1;P1;durP2;ratioP2;P2;SDS_P1;SDS_P2;PMS_P1;PMS_P2;Temp;Humidity;BMP_temperature;BMP_pressure;BME280_temperature;BME280_humidity;BME280_pressure;Samples;Min_cycle;Max_cycle;Signal;HPM_P1;HPM_P2
2023/10/10 00:00:55;;;;;;;0.85;0.80;;;;;;;;;;5017851;28;20117;-76
2023/10/10 00:03:21;;;;;;;1.10;0.77;;;;;;;;;;5014220;28;20033;-75
2023/10/10 00:05:48;;;;;;;0.70;0.70;;;;;;;;;;5013520;28;20029;-76
2023/10/10 00:08:15;;;;;;;0.80;0.63;;;;;;;;;;5013308;28;20037;-76
2023/10/10 00:10:51;;;;;;;1.92;1.02;;;;;;;;;;5016289;28;20041;-76
2023/10/10 00:13:19;;;;;;;1.02;0.75;;;;;;;;;;5014437;28;20049;-77
2023/10/10 00:15:50;;;;;;;1.95;0.75;;;;;;;;;;5012973;28;20022;-75
2023/10/10 00:18:19;;;;;;;0.60;0.60;;;;;;;;;;5013035;28;20014;-76
2023/10/10 00:21:08;;;;;;;0.77;0.70;;;;;;;;;;5012702;28;20030;-76
2023/10/10 00:23:42;;;;;;;0.60;0.60;;;;;;;;;;5013116;28;20024;-75
2023/10/10 00:26:12;;;;;;;0.77;0.60;;;;;;;;;;5013637;28;20496;-76
2023/10/10 00:28:39;;;;;;;1.75;0.60;;;;;;;;;;5013588;28;20021;-76
2023/10/10 00:31:09;;;;;;;0.50;0.50;;;;;;;;;;5015319;28;20044;-76
2023/10/10 00:33:38;;;;;;;0.70;0.70;;;;;;;;;;5016348;28;20018;-76
2023/10/10 00:36:04;;;;;;;1.08;0.90;;;;;;;;;;4998577;28;20045;-76
2023/10/10 00:38:30;;;;;;;0.82;0.65;;;;;;;;;;5016108;28;20060;-76
2023/10/10 00:41:05;;;;;;;1.42;0.90;;;;;;;;;;5016121;28;20029;-75
2023/10/10 00:43:31;;;;;;;0.60;0.60;;;;;;;;;;5016382;28;20037;-76
2023/10/10 00:45:58;;;;;;;0.85;0.82;;;;;;;;;;5016299;28;20028;-76
2023/10/10 00:48:29;;;;;;;1.33;0.73;;;;;;;;;;4998469;28;20033;-75
2023/10/10 00:51:05;;;;;;;1.30;0.82;;;;;;;;;;5015970;28;20026;-76
2023/10/10 00:53:33;;;;;;;0.80;0.80;;;;;;;;;;5015647;28;20481;-76
2023/10/10 00:56:00;;;;;;;0.63;0.63;;;;;;;;;;4998319;28;20479;-77
2023/10/10 00:58:36;;;;;;;0.65;0.65;;;;;;;;;;5016410;28;20022;-76
2023/10/10 01:01:14;;;;;;;0.73;0.50;;;;;;;;;;5015708;28;20101;-76
2023/10/10 01:03:42;;;;;;;1.02;0.73;;;;;;;;;;4997736;28;20030;-76
2023/10/10 01:06:24;;;;;;;0.70;0.50;;;;;;;;;;5016290;28;20097;-76
2023/10/10 01:09:04;;;;;;;0.70;0.52;;;;;;;;;;5016005;28;20068;-76
2023/10/10 01:11:30;;;;;;;0.70;0.55;;;;;;;;;;5015588;28;20068;-76
2023/10/10 01:14:00;;;;;;;0.60;0.60;;;;;;;;;;5015714;28;20021;-77
2023/10/10 01:16:27;;;;;;;0.50;0.50;;;;;;;;;;5016103;28;20058;-76
2023/10/10 01:18:59;;;;;;;0.63;0.60;;;;;;;;;;4998223;28;20113;-76
2023/10/10 01:21:32;;;;;;;0.70;0.70;;;;;;;;;;4998206;28;20057;-77
2023/10/10 01:24:11;;;;;;;0.55;0.52;;;;;;;;;;5016655;28;20037;-77
2023/10/10 01:26:38;;;;;;;0.88;0.60;;;;;;;;;;5015961;28;20386;-76
2023/10/10 01:29:25;;;;;;;0.85;0.55;;;;;;;;;;5016617;28;20025;-77
2023/10/10 01:31:54;;;;;;;1.40;0.98;;;;;;;;;;5016872;28;20541;-76
2023/10/10 01:37:22;;;;;;;0.95;0.50;;;;;;;;;;4993611;28;20052;-77
2023/10/10 01:39:48;;;;;;;0.63;0.63;;;;;;;;;;5016828;28;20033;-76
2023/10/10 01:42:17;;;;;;;0.73;0.63;;;;;;;;;;5014933;28;20041;-76
2023/10/10 01:44:43;;;;;;;0.68;0.63;;;;;;;;;;5021823;28;20034;-76
2023/10/10 01:47:18;;;;;;;0.55;0.50;;;;;;;;;;5031180;28;20022;-75
2023/10/10 01:49:45;;;;;;;0.80;0.73;;;;;;;;;;5032475;28;20029;-75
2023/10/10 01:52:16;;;;;;;0.60;0.60;;;;;;;;;;5025051;28;20416;-77
2023/10/10 01:54:45;;;;;;;0.70;0.70;;;;;;;;;;5016066;28;20109;-76
2023/10/10 01:57:21;;;;;;;0.70;0.70;;;;;;;;;;5015693;28;20623;-76
2023/10/10 01:59:47;;;;;;;0.80;0.73;;;;;;;;;;5015665;28;20029;-77
2023/10/10 02:02:16;;;;;;;0.73;0.63;;;;;;;;;;5015855;28;20144;-76
2023/10/10 02:04:42;;;;;;;0.50;0.50;;;;;;;;;;4997318;28;20061;-76
2023/10/10 02:07:53;;;;;;;1.08;0.50;;;;;;;;;;5020821;28;20029;-75
2023/10/10 02:10:13;;;;;;;0.95;0.68;;;;;;;;;;5027372;28;20352;-75
2023/10/10 02:12:44;;;;;;;0.77;0.50;;;;;;;;;;5031688;28;20026;-76
2023/10/10 02:15:12;;;;;;;1.13;1.02;;;;;;;;;;5015543;28;20030;-76
2023/10/10 02:17:50;;;;;;;1.00;0.63;;;;;;;;;;5013907;28;20030;-76
2023/10/10 02:26:03;;;;;;;0.70;0.60;;;;;;;;;;4955693;28;20031;-77
2023/10/10 02:28:48;;;;;;;0.75;0.65;;;;;;;;;;4955256;29;20442;-76
2023/10/10 02:31:16;;;;;;;1.00;0.82;;;;;;;;;;4980691;28;20508;-76
2023/10/10 02:34:24;;;;;;;1.05;0.60;;;;;;;;;;4996526;28;20098;-76
2023/10/10 02:36:31;;;;;;;1.15;0.60;;;;;;;;;;5013164;28;20037;-76
2023/10/10 02:39:11;;;;;;;0.98;0.68;;;;;;;;;;5009910;28;20022;-77
2023/10/10 02:41:48;;;;;;;1.00;0.80;;;;;;;;;;5027388;28;20022;-76
2023/10/10 02:44:26;;;;;;;0.82;0.77;;;;;;;;;;5008357;28;20041;-77
2023/10/10 02:46:54;;;;;;;0.50;0.40;;;;;;;;;;5009228;28;20026;-76
2023/10/10 02:49:23;;;;;;;0.40;0.40;;;;;;;;;;4990692;28;20030;-77
2023/10/10 02:51:56;;;;;;;0.70;0.70;;;;;;;;;;5008065;28;20154;-76
2023/10/10 02:54:33;;;;;;;0.57;0.57;;;;;;;;;;5009768;28;20026;-75
2023/10/10 02:57:47;;;;;;;0.47;0.47;;;;;;;;;;5028737;28;20024;-76
2023/10/10 02:59:59;;;;;;;0.63;0.63;;;;;;;;;;5021426;28;20049;-76
2023/10/10 03:05:38;;;;;;;0.77;0.60;;;;;;;;;;5011395;28;20034;-77
2023/10/10 03:08:12;;;;;;;0.77;0.47;;;;;;;;;;4990616;28;20026;-76
2023/10/10 03:10:41;;;;;;;1.38;0.60;;;;;;;;;;5003621;28;20493;-75
2023/10/10 03:13:30;;;;;;;0.50;0.50;;;;;;;;;;5005895;28;20029;-77
2023/10/10 03:15:55;;;;;;;0.50;0.50;;;;;;;;;;5007623;28;20235;-77
2023/10/10 03:18:35;;;;;;;0.77;0.40;;;;;;;;;;5018017;28;20101;-76
2023/10/10 03:21:18;;;;;;;1.83;0.77;;;;;;;;;;5021528;28;20053;-77
2023/10/10 03:23:55;;;;;;;0.40;0.40;;;;;;;;;;5015170;28;20025;-76
2023/10/10 03:29:11;;;;;;;0.80;0.40;;;;;;;;;;4995347;28;20041;-76
2023/10/10 03:31:47;;;;;;;0.52;0.52;;;;;;;;;;4995332;28;20026;-77
2023/10/10 03:34:30;;;;;;;0.88;0.88;;;;;;;;;;4995398;28;20031;-78
2023/10/10 03:39:53;;;;;;;0.40;0.40;;;;;;;;;;4980335;28;20084;-76
2023/10/10 05:24:09;;;;;;;0.73;0.70;;;;;;;;;;5016814;28;20061;-77
2023/10/10 05:26:46;;;;;;;0.65;0.65;;;;;;;;;;5016049;28;20022;-76
2023/10/10 05:29:19;;;;;;;0.50;0.50;;;;;;;;;;5016495;28;20474;-77
2023/10/10 05:31:45;;;;;;;0.70;0.70;;;;;;;;;;4999329;28;20041;-76
2023/10/10 05:34:14;;;;;;;0.50;0.50;;;;;;;;;;5016403;28;20026;-76
2023/10/10 05:36:41;;;;;;;0.60;0.60;;;;;;;;;;5016642;28;20041;-76
2023/10/10 05:39:11;;;;;;;0.60;0.60;;;;;;;;;;5016185;28;20020;-76
2023/10/10 05:41:40;;;;;;;0.80;0.80;;;;;;;;;;5016373;28;20029;-77
2023/10/10 05:44:08;;;;;;;0.80;0.70;;;;;;;;;;4999663;28;20025;-77
2023/10/10 05:46:35;;;;;;;0.60;0.60;;;;;;;;;;4999890;28;20025;-77
2023/10/10 05:49:02;;;;;;;0.50;0.50;;;;;;;;;;5017205;28;20477;-77
2023/10/10 05:51:29;;;;;;;0.60;0.60;;;;;;;;;;5000283;28;20026;-76
2023/10/10 05:53:57;;;;;;;0.57;0.57;;;;;;;;;;5017787;28;20540;-77
2023/10/10 05:56:24;;;;;;;0.55;0.50;;;;;;;;;;5000475;28;20090;-76
2023/10/10 05:58:50;;;;;;;0.55;0.50;;;;;;;;;;5016820;28;20080;-76
2023/10/10 06:01:17;;;;;;;1.10;1.00;;;;;;;;;;5017694;28;20058;-78
2023/10/10 06:03:46;;;;;;;0.70;0.50;;;;;;;;;;4999649;28;20484;-77
2023/10/10 06:06:13;;;;;;;0.70;0.63;;;;;;;;;;5018571;28;20026;-77
2023/10/10 06:08:42;;;;;;;0.73;0.73;;;;;;;;;;5018136;28;20029;-78
2023/10/10 06:11:09;;;;;;;0.70;0.70;;;;;;;;;;5000999;28;20556;-77
2023/10/10 06:13:39;;;;;;;0.47;0.47;;;;;;;;;;5017214;28;20072;-76
2023/10/10 06:16:12;;;;;;;0.68;0.68;;;;;;;;;;5017095;28;20033;-77
2023/10/10 06:18:41;;;;;;;0.50;0.50;;;;;;;;;;4997660;28;20026;-77
2023/10/10 06:21:08;;;;;;;0.70;0.70;;;;;;;;;;5016462;28;20025;-77
2023/10/10 06:23:35;;;;;;;0.98;0.90;;;;;;;;;;4999541;28;20030;-77
2023/10/10 06:26:01;;;;;;;1.10;1.00;;;;;;;;;;5015328;28;20037;-77
2023/10/10 06:28:29;;;;;;;0.70;0.70;;;;;;;;;;5014476;28;20026;-76
2023/10/10 06:30:55;;;;;;;1.40;1.30;;;;;;;;;;5015021;28;21977;-77
2023/10/10 06:33:32;;;;;;;0.90;0.90;;;;;;;;;;4998075;28;20025;-77
2023/10/10 06:36:18;;;;;;;1.15;1.02;;;;;;;;;;4998524;28;20022;-77
2023/10/10 06:38:44;;;;;;;1.75;1.10;;;;;;;;;;4998865;28;20030;-77
2023/10/10 06:41:17;;;;;;;1.83;1.20;;;;;;;;;;5016419;28;20030;-77
2023/10/10 06:43:46;;;;;;;2.25;1.33;;;;;;;;;;5017386;28;20026;-77
2023/10/10 06:46:17;;;;;;;1.10;1.00;;;;;;;;;;5032292;28;20018;-77
2023/10/10 06:48:47;;;;;;;1.40;1.30;;;;;;;;;;5033326;28;20021;-75
2023/10/10 06:51:15;;;;;;;1.45;1.15;;;;;;;;;;5012241;28;20045;-79
2023/10/10 06:53:44;;;;;;;1.90;1.10;;;;;;;;;;5016410;28;20029;-77
2023/10/10 06:56:17;;;;;;;2.40;1.63;;;;;;;;;;5016029;28;20468;-77
2023/10/10 06:58:48;;;;;;;4.55;1.80;;;;;;;;;;5015710;28;20476;-77
2023/10/10 07:01:19;;;;;;;1.63;1.40;;;;;;;;;;5017464;28;20026;-77
2023/10/10 07:03:54;;;;;;;2.28;1.20;;;;;;;;;;5002099;28;20025;-76
2023/10/10 07:06:20;;;;;;;2.45;1.63;;;;;;;;;;5015301;28;20061;-76
2023/10/10 07:08:49;;;;;;;3.08;1.60;;;;;;;;;;5018556;28;20029;-77
2023/10/10 07:11:20;;;;;;;2.03;1.50;;;;;;;;;;5002003;28;20026;-77
2023/10/10 07:13:58;;;;;;;2.83;1.90;;;;;;;;;;5016347;28;20014;-76
2023/10/10 07:16:24;;;;;;;2.78;1.65;;;;;;;;;;5007764;28;20472;-75
2023/10/10 07:18:56;;;;;;;4.32;2.13;;;;;;;;;;5026394;28;20026;-75
2023/10/10 07:21:36;;;;;;;2.47;1.73;;;;;;;;;;5003918;28;20136;-74
2023/10/10 07:24:13;;;;;;;3.60;1.95;;;;;;;;;;5026263;28;20018;-75
2023/10/10 07:26:42;;;;;;;1.60;1.42;;;;;;;;;;5009720;28;20660;-75
2023/10/10 07:32:27;;;;;;;1.70;1.23;;;;;;;;;;4980117;28;20054;-75
2023/10/10 07:34:54;;;;;;;2.08;1.30;;;;;;;;;;4981554;28;20031;-75
2023/10/10 07:37:22;;;;;;;1.30;1.20;;;;;;;;;;5002905;28;20030;-75
2023/10/10 07:39:55;;;;;;;1.80;1.50;;;;;;;;;;5013822;28;20025;-75
2023/10/10 07:42:29;;;;;;;2.00;1.40;;;;;;;;;;4998324;28;20038;-75
2023/10/10 07:44:55;;;;;;;1.50;1.10;;;;;;;;;;4994186;28;20022;-76
2023/10/10 07:47:27;;;;;;;1.40;1.17;;;;;;;;;;4994173;28;20080;-76
2023/10/10 07:49:59;;;;;;;3.05;1.88;;;;;;;;;;4993515;28;20101;-74
2023/10/10 07:52:25;;;;;;;5.40;2.00;;;;;;;;;;5006686;28;20034;-75
2023/10/10 07:55:03;;;;;;;4.13;2.10;;;;;;;;;;4995895;28;20038;-76
2023/10/10 07:57:29;;;;;;;3.83;1.88;;;;;;;;;;4994344;28;20026;-76
2023/10/10 07:59:56;;;;;;;2.05;1.55;;;;;;;;;;4993692;28;20077;-76
2023/10/10 08:02:31;;;;;;;3.72;1.83;;;;;;;;;;4995234;28;20026;-74
2023/10/10 08:05:01;;;;;;;2.70;1.45;;;;;;;;;;4993642;28;20494;-74
2023/10/10 08:07:27;;;;;;;2.13;1.70;;;;;;;;;;4993831;28;20026;-74
2023/10/10 08:10:13;;;;;;;1.55;1.20;;;;;;;;;;4980025;28;20512;-75
2023/10/10 08:12:39;;;;;;;1.75;1.63;;;;;;;;;;5001291;28;20385;-75
2023/10/10 08:15:24;;;;;;;3.97;2.65;;;;;;;;;;5012713;28;20067;-74
2023/10/10 08:17:52;;;;;;;7.97;3.20;;;;;;;;;;5014584;28;20122;-75
2023/10/10 08:23:08;;;;;;;4.78;2.83;;;;;;;;;;4985178;28;20031;-75
2023/10/10 08:25:37;;;;;;;6.30;2.90;;;;;;;;;;4993962;28;20150;-75
2023/10/10 08:28:05;;;;;;;5.18;3.00;;;;;;;;;;4976135;28;20019;-77
2023/10/10 08:30:32;;;;;;;10.23;3.78;;;;;;;;;;4993978;28;20035;-75
2023/10/10 08:32:59;;;;;;;12.50;3.78;;;;;;;;;;4993620;28;20164;-75
2023/10/10 08:35:29;;;;;;;11.35;4.30;;;;;;;;;;4980020;28;20049;-75
2023/10/10 08:37:56;;;;;;;9.18;4.28;;;;;;;;;;4994483;28;20019;-76
2023/10/10 08:40:22;;;;;;;7.53;3.05;;;;;;;;;;4994320;28;20386;-75
2023/10/10 08:42:51;;;;;;;7.75;2.95;;;;;;;;;;4994601;28;20037;-74
2023/10/10 08:45:25;;;;;;;8.55;3.70;;;;;;;;;;5014325;28;20049;-75
2023/10/10 08:48:01;;;;;;;14.02;3.40;;;;;;;;;;5013459;28;20472;-75
2023/10/10 08:50:37;;;;;;;9.55;3.78;;;;;;;;;;5013822;28;20517;-76
2023/10/10 08:53:05;;;;;;;7.70;3.35;;;;;;;;;;5016106;28;20056;-76
2023/10/10 08:55:34;;;;;;;7.43;3.90;;;;;;;;;;4997673;28;20027;-75
2023/10/10 08:58:00;;;;;;;10.30;4.05;;;;;;;;;;4997650;28;20434;-76
2023/10/10 09:00:27;;;;;;;10.13;3.95;;;;;;;;;;4996938;28;20057;-76
2023/10/10 09:02:56;;;;;;;9.77;4.35;;;;;;;;;;4996628;28;20101;-75
2023/10/10 09:05:23;;;;;;;15.10;4.88;;;;;;;;;;5012404;28;20113;-76
2023/10/10 09:07:52;;;;;;;8.30;3.42;;;;;;;;;;4998762;28;20072;-75
2023/10/10 09:10:28;;;;;;;8.00;4.28;;;;;;;;;;5016615;28;20476;-75
2023/10/10 09:12:56;;;;;;;7.57;3.90;;;;;;;;;;5016218;28;20041;-76
2023/10/10 09:15:27;;;;;;;9.23;3.85;;;;;;;;;;5002973;28;20034;-75
2023/10/10 09:18:05;;;;;;;7.30;3.93;;;;;;;;;;5013824;28;20056;-76
2023/10/10 09:20:32;;;;;;;6.85;3.50;;;;;;;;;;4998621;28;20022;-75
2023/10/10 09:23:08;;;;;;;9.32;3.53;;;;;;;;;;5016049;28;20381;-74
2023/10/10 09:25:57;;;;;;;10.60;3.95;;;;;;;;;;5003954;28;20455;-76
2023/10/10 09:28:30;;;;;;;18.02;4.93;;;;;;;;;;4996516;28;20061;-76
2023/10/10 09:31:02;;;;;;;12.40;4.75;;;;;;;;;;4996395;28;20073;-73
2023/10/10 09:33:29;;;;;;;15.25;4.68;;;;;;;;;;4996697;28;20078;-75
2023/10/10 09:36:19;;;;;;;13.38;3.78;;;;;;;;;;4991558;28;20264;-76
2023/10/10 09:38:46;;;;;;;7.80;4.10;;;;;;;;;;5015747;28;20020;-75
2023/10/10 09:55:45;;;;;;;11.63;3.90;;;;;;;;;;4997365;28;20045;-75
2023/10/10 09:58:15;;;;;;;;;;;;;;;;;;4989220;28;20065;-75
2023/10/10 10:09:19;;;;;;;11.63;4.28;;;;;;;;;;5017463;28;20524;-75
2023/10/10 10:11:59;;;;;;;9.05;4.32;;;;;;;;;;5017028;28;20034;-76
2023/10/10 10:14:47;;;;;;;7.70;4.03;;;;;;;;;;5015999;28;20022;-76
2023/10/10 10:17:24;;;;;;;8.20;3.58;;;;;;;;;;4997694;28;20034;-76
2023/10/10 10:19:51;;;;;;;6.60;3.38;;;;;;;;;;5015561;28;20469;-75
2023/10/10 10:22:17;;;;;;;6.20;3.55;;;;;;;;;;5015328;28;20030;-76
2023/10/10 10:24:46;;;;;;;7.80;3.92;;;;;;;;;;5015612;28;20112;-76
2023/10/10 10:27:24;;;;;;;4.75;3.33;;;;;;;;;;5015050;28;20385;-76
2023/10/10 10:29:54;;;;;;;11.15;4.07;;;;;;;;;;5014830;28;20548;-75
2023/10/10 10:32:24;;;;;;;13.43;4.53;;;;;;;;;;5014985;28;20030;-75
2023/10/10 10:34:57;;;;;;;10.88;4.80;;;;;;;;;;5003215;28;20018;-76
2023/10/10 10:37:25;;;;;;;7.15;3.78;;;;;;;;;;5014422;28;20084;-76
2023/10/10 10:42:38;;;;;;;11.93;4.55;;;;;;;;;;5018443;28;20034;-75
2023/10/10 10:45:26;;;;;;;11.85;4.82;;;;;;;;;;5015763;28;20061;-75
2023/10/10 10:48:01;;;;;;;8.43;4.50;;;;;;;;;;4997931;28;20055;-75
2023/10/10 10:50:28;;;;;;;5.47;3.95;;;;;;;;;;5014458;28;20030;-75
2023/10/10 10:52:58;;;;;;;6.18;3.83;;;;;;;;;;5014004;28;20029;-76
2023/10/10 10:55:28;;;;;;;9.57;4.35;;;;;;;;;;5014001;28;20101;-76
2023/10/10 10:58:08;;;;;;;7.75;3.97;;;;;;;;;;5013573;28;20026;-76
2023/10/10 11:00:56;;;;;;;5.65;3.65;;;;;;;;;;5013977;28;20096;-75
2023/10/10 11:03:34;;;;;;;12.70;4.53;;;;;;;;;;5013458;28;20173;-75
2023/10/10 11:06:00;;;;;;;8.90;4.65;;;;;;;;;;4996578;28;20076;-75
2023/10/10 11:14:00;;;;;;;7.10;3.92;;;;;;;;;;5015813;28;20080;-76
2023/10/10 11:16:39;;;;;;;6.55;3.33;;;;;;;;;;5014383;28;20520;-76
2023/10/10 11:21:48;;;;;;;8.05;4.03;;;;;;;;;;5014888;28;20109;-75
2023/10/10 11:24:15;;;;;;;9.20;4.68;;;;;;;;;;5014770;28;20069;-76
2023/10/10 11:26:44;;;;;;;11.88;4.40;;;;;;;;;;4996171;28;20049;-76
2023/10/10 11:29:27;;;;;;;7.25;3.92;;;;;;;;;;5014982;28;20475;-75
2023/10/10 11:32:08;;;;;;;9.10;4.20;;;;;;;;;;5013856;28;20036;-76
2023/10/10 11:34:44;;;;;;;9.35;4.85;;;;;;;;;;4995936;28;20079;-76
2023/10/10 11:37:32;;;;;;;9.77;4.43;;;;;;;;;;5013195;28;20014;-75
2023/10/10 11:40:53;;;;;;;8.93;4.75;;;;;;;;;;5013337;28;20029;-75
2023/10/10 11:43:03;;;;;;;6.80;4.20;;;;;;;;;;5014430;28;20065;-74
2023/10/10 11:45:30;;;;;;;8.70;4.38;;;;;;;;;;5031020;28;20026;-74
2023/10/10 11:48:05;;;;;;;12.60;5.32;;;;;;;;;;5033028;28;20050;-74
2023/10/10 11:50:47;;;;;;;8.38;3.88;;;;;;;;;;5027559;28;20030;-75
2023/10/10 11:53:15;;;;;;;10.45;4.80;;;;;;;;;;4996928;28;20030;-75
2023/10/10 11:55:41;;;;;;;9.88;3.72;;;;;;;;;;5013619;28;20022;-76
2023/10/10 11:58:16;;;;;;;7.38;4.22;;;;;;;;;;5013428;28;20109;-76
2023/10/10 12:00:42;;;;;;;10.80;4.53;;;;;;;;;;5013660;28;20017;-75
2023/10/10 12:03:10;;;;;;;6.35;3.58;;;;;;;;;;5012869;28;20066;-75
2023/10/10 12:05:38;;;;;;;6.10;3.45;;;;;;;;;;5013062;28;20108;-76
2023/10/10 12:08:05;;;;;;;6.28;3.72;;;;;;;;;;5012738;28;20018;-76
2023/10/10 12:13:33;;;;;;;8.88;4.20;;;;;;;;;;5013200;28;20049;-76
2023/10/10 12:15:59;;;;;;;9.98;5.35;;;;;;;;;;5013051;28;20014;-77
2023/10/10 12:18:31;;;;;;;11.60;4.03;;;;;;;;;;5013084;28;20022;-74
2023/10/10 12:21:02;;;;;;;11.13;4.30;;;;;;;;;;5012800;28;20030;-75
2023/10/10 12:23:30;;;;;;;12.65;4.18;;;;;;;;;;5012940;28;20045;-75
2023/10/10 12:25:56;;;;;;;7.30;4.00;;;;;;;;;;5014577;28;20060;-75
2023/10/10 12:28:22;;;;;;;4.82;3.28;;;;;;;;;;5017855;28;20022;-76
2023/10/10 12:30:48;;;;;;;8.02;4.03;;;;;;;;;;5022658;28;20030;-74
2023/10/10 12:33:23;;;;;;;7.43;3.65;;;;;;;;;;5027127;28;20034;-74
2023/10/10 12:35:49;;;;;;;4.47;3.55;;;;;;;;;;5031334;28;20026;-75
2023/10/10 12:38:20;;;;;;;5.57;3.63;;;;;;;;;;5011613;28;20048;-76
2023/10/10 12:40:47;;;;;;;5.05;2.70;;;;;;;;;;5024592;28;20473;-73
2023/10/10 12:43:13;;;;;;;7.88;3.83;;;;;;;;;;5022726;28;20034;-75
2023/10/10 12:45:39;;;;;;;7.85;3.80;;;;;;;;;;5016714;28;20022;-76
2023/10/10 12:48:13;;;;;;;9.13;4.68;;;;;;;;;;5017392;28;20037;-75
2023/10/10 12:50:40;;;;;;;5.32;3.30;;;;;;;;;;5017535;28;20029;-76
2023/10/10 12:53:14;;;;;;;6.07;3.70;;;;;;;;;;4999193;28;20030;-75
2023/10/10 12:55:48;;;;;;;5.97;3.70;;;;;;;;;;5016504;28;20025;-75
2023/10/10 12:58:16;;;;;;;7.05;3.67;;;;;;;;;;5017124;28;20021;-76
2023/10/10 13:00:50;;;;;;;6.50;3.72;;;;;;;;;;5017364;28;20073;-76
2023/10/10 13:03:16;;;;;;;11.13;4.60;;;;;;;;;;5016739;28;20061;-75
2023/10/10 13:05:47;;;;;;;8.38;3.70;;;;;;;;;;5016565;28;20069;-76
2023/10/10 13:08:14;;;;;;;6.60;3.50;;;;;;;;;;5017190;28;20022;-76
2023/10/10 13:10:41;;;;;;;8.73;4.13;;;;;;;;;;5016669;28;20026;-75
2023/10/10 13:13:09;;;;;;;12.57;4.43;;;;;;;;;;4997566;28;20026;-76
2023/10/10 13:15:50;;;;;;;9.07;4.13;;;;;;;;;;5015651;28;20026;-76
2023/10/10 13:18:19;;;;;;;7.72;3.67;;;;;;;;;;5016527;28;20048;-74
2023/10/10 13:20:50;;;;;;;9.77;3.70;;;;;;;;;;5016085;28;20469;-75
2023/10/10 13:23:17;;;;;;;5.75;3.88;;;;;;;;;;5002986;28;20026;-73
2023/10/10 13:25:43;;;;;;;6.78;3.58;;;;;;;;;;5019494;28;20087;-75
2023/10/10 13:28:09;;;;;;;8.95;3.80;;;;;;;;;;5016158;28;20037;-76
2023/10/10 13:30:38;;;;;;;6.50;3.60;;;;;;;;;;5016834;28;20021;-76
2023/10/10 13:33:06;;;;;;;7.40;3.33;;;;;;;;;;4998971;28;20525;-76
2023/10/10 13:35:36;;;;;;;5.85;3.53;;;;;;;;;;5019321;28;20449;-74
2023/10/10 13:38:02;;;;;;;7.10;3.20;;;;;;;;;;5024303;28;20084;-75
2023/10/10 13:40:37;;;;;;;9.70;4.22;;;;;;;;;;5026505;28;20125;-74
2023/10/10 13:43:08;;;;;;;14.35;4.43;;;;;;;;;;5028350;28;20033;-73
2023/10/10 13:45:35;;;;;;;8.13;3.60;;;;;;;;;;5029883;28;20022;-74
2023/10/10 13:48:01;;;;;;;9.82;4.28;;;;;;;;;;5030312;28;20253;-74
2023/10/10 13:50:40;;;;;;;10.32;3.40;;;;;;;;;;5008709;28;20088;-75
2023/10/10 13:53:07;;;;;;;5.38;3.08;;;;;;;;;;5027522;28;20074;-74
2023/10/10 13:55:34;;;;;;;4.22;2.40;;;;;;;;;;5033670;28;20022;-76
2023/10/10 13:58:00;;;;;;;7.47;3.00;;;;;;;;;;5033082;28;20018;-74
2023/10/10 14:00:33;;;;;;;5.55;2.70;;;;;;;;;;5033048;28;20054;-75
2023/10/10 14:03:05;;;;;;;6.35;2.80;;;;;;;;;;5032802;28;20033;-73
2023/10/10 14:05:33;;;;;;;11.95;4.00;;;;;;;;;;5033108;28;20030;-74
2023/10/10 14:08:02;;;;;;;9.63;4.05;;;;;;;;;;5029926;28;20040;-75
2023/10/10 14:10:34;;;;;;;8.70;3.00;;;;;;;;;;5026012;28;20022;-75
2023/10/10 14:13:17;;;;;;;;;;;;;;;;;;5027625;28;20034;-76
2023/10/10 14:15:54;;;;;;;3.75;2.70;;;;;;;;;;5020034;28;19920;-75
2023/10/10 14:18:20;;;;;;;5.03;2.50;;;;;;;;;;5028541;28;20026;-74
2023/10/10 14:20:48;;;;;;;7.75;2.60;;;;;;;;;;5027295;28;20127;-76
2023/10/10 14:23:14;;;;;;;6.53;2.60;;;;;;;;;;5029100;28;20054;-74
2023/10/10 14:25:45;;;;;;;7.10;2.70;;;;;;;;;;5024393;28;20038;-76
2023/10/10 14:28:16;;;;;;;8.75;3.80;;;;;;;;;;5006839;28;20373;-77
2023/10/10 14:30:42;;;;;;;12.27;3.80;;;;;;;;;;5016513;28;20361;-76
2023/10/10 14:33:09;;;;;;;7.90;3.45;;;;;;;;;;5015980;28;20034;-77
2023/10/10 14:35:35;;;;;;;7.38;3.45;;;;;;;;;;5015695;28;20068;-77
2023/10/10 14:38:01;;;;;;;8.38;2.63;;;;;;;;;;5016176;28;20545;-76
2023/10/10 14:40:28;;;;;;;5.35;2.80;;;;;;;;;;5016275;28;20102;-75
2023/10/10 14:42:54;;;;;;;7.00;2.97;;;;;;;;;;5015402;28;20431;-78
2023/10/10 14:45:28;;;;;;;3.22;2.30;;;;;;;;;;5015587;28;20059;-76
2023/10/10 14:47:55;;;;;;;5.35;2.90;;;;;;;;;;5015208;28;20030;-76
2023/10/10 14:50:24;;;;;;;3.72;1.95;;;;;;;;;;5015056;28;20018;-77
2023/10/10 14:52:53;;;;;;;5.35;2.28;;;;;;;;;;5015865;28;20040;-76
2023/10/10 14:55:27;;;;;;;8.18;3.55;;;;;;;;;;5014606;28;20026;-76
2023/10/10 14:57:56;;;;;;;14.25;4.85;;;;;;;;;;5014892;28;20053;-76
2023/10/10 15:00:28;;;;;;;10.45;3.75;;;;;;;;;;5014823;28;20026;-76
2023/10/10 15:02:55;;;;;;;6.18;3.03;;;;;;;;;;5014944;28;20031;-76
2023/10/10 15:05:25;;;;;;;6.43;3.00;;;;;;;;;;5015107;28;20029;-77
2023/10/10 15:07:52;;;;;;;5.18;3.03;;;;;;;;;;5014458;28;20511;-77
2023/10/10 15:10:23;;;;;;;4.93;2.92;;;;;;;;;;5015876;28;20123;-76
2023/10/10 15:12:49;;;;;;;8.33;3.80;;;;;;;;;;5017755;28;20481;-76
2023/10/10 15:15:16;;;;;;;7.72;3.08;;;;;;;;;;5015011;28;20022;-76
2023/10/10 15:17:43;;;;;;;5.20;2.30;;;;;;;;;;5014601;28;20473;-76
2023/10/10 15:20:12;;;;;;;2.85;2.28;;;;;;;;;;5015584;28;20457;-76
2023/10/10 15:22:41;;;;;;;5.30;2.60;;;;;;;;;;5015002;28;20026;-76
2023/10/10 15:25:08;;;;;;;5.30;2.40;;;;;;;;;;5014955;28;20056;-76
2023/10/10 15:27:34;;;;;;;5.40;2.75;;;;;;;;;;5014104;28;20544;-76
2023/10/10 15:30:08;;;;;;;4.00;1.85;;;;;;;;;;5014022;28;20068;-75
2023/10/10 15:32:43;;;;;;;3.15;1.80;;;;;;;;;;5014007;28;20073;-76
2023/10/10 15:35:09;;;;;;;4.50;2.10;;;;;;;;;;5013594;28;20033;-76
2023/10/10 15:37:42;;;;;;;4.60;2.55;;;;;;;;;;5014146;28;20142;-76
2023/10/10 15:40:09;;;;;;;4.90;1.60;;;;;;;;;;5014347;28;20026;-75
2023/10/10 15:42:35;;;;;;;3.53;2.08;;;;;;;;;;4995857;28;20033;-75
2023/10/10 15:45:04;;;;;;;4.10;2.03;;;;;;;;;;5013428;28;20030;-76
2023/10/10 15:47:31;;;;;;;3.90;2.05;;;;;;;;;;4995545;28;20500;-76
2023/10/10 15:50:00;;;;;;;5.70;3.20;;;;;;;;;;5012995;28;20112;-76
2023/10/10 15:52:33;;;;;;;5.30;2.90;;;;;;;;;;5013406;28;20384;-76
2023/10/10 15:54:59;;;;;;;6.43;2.58;;;;;;;;;;5013013;28;20029;-76
2023/10/10 15:57:26;;;;;;;3.92;2.35;;;;;;;;;;5013707;28;20033;-76
2023/10/10 15:59:52;;;;;;;2.63;1.85;;;;;;;;;;5014444;28;20049;-77
2023/10/10 16:02:18;;;;;;;4.50;1.85;;;;;;;;;;5017872;28;20037;-77
2023/10/10 16:04:44;;;;;;;2.05;1.45;;;;;;;;;;5018116;28;20038;-77
2023/10/10 16:07:11;;;;;;;2.45;1.58;;;;;;;;;;5017790;28;20033;-77
2023/10/10 16:09:37;;;;;;;3.10;2.15;;;;;;;;;;5017298;28;20069;-74
2023/10/10 16:12:07;;;;;;;3.03;1.90;;;;;;;;;;5016327;28;20034;-74
2023/10/10 16:14:36;;;;;;;3.83;1.58;;;;;;;;;;5016605;28;20465;-75
2023/10/10 16:17:02;;;;;;;1.88;1.30;;;;;;;;;;4998939;28;20029;-75
2023/10/10 16:19:34;;;;;;;2.80;1.55;;;;;;;;;;5019033;28;20037;-75
2023/10/10 16:22:01;;;;;;;1.60;1.50;;;;;;;;;;5019226;28;20080;-75
2023/10/10 16:24:27;;;;;;;2.13;1.33;;;;;;;;;;5017524;28;20025;-76
2023/10/10 16:27:01;;;;;;;1.90;1.55;;;;;;;;;;5017316;28;20124;-76
2023/10/10 16:29:32;;;;;;;1.58;1.48;;;;;;;;;;5017421;28;20026;-76
2023/10/10 16:31:59;;;;;;;2.72;1.25;;;;;;;;;;5018166;28;20037;-74
2023/10/10 16:34:26;;;;;;;1.48;1.38;;;;;;;;;;5020865;28;20018;-76
2023/10/10 16:36:52;;;;;;;0.90;0.90;;;;;;;;;;5018003;28;20022;-76
2023/10/10 16:39:19;;;;;;;1.17;1.05;;;;;;;;;;5017636;28;20504;-77
2023/10/10 16:41:47;;;;;;;1.30;1.20;;;;;;;;;;5017904;28;20030;-76
2023/10/10 16:44:14;;;;;;;1.25;1.08;;;;;;;;;;5021475;28;20040;-76
2023/10/10 16:46:40;;;;;;;0.85;0.85;;;;;;;;;;5015533;28;20057;-76
2023/10/10 16:49:07;;;;;;;0.80;0.80;;;;;;;;;;5024982;28;20060;-76
2023/10/10 16:51:33;;;;;;;0.63;0.63;;;;;;;;;;5029390;28;20504;-77
2023/10/10 16:53:59;;;;;;;0.90;0.90;;;;;;;;;;5019848;28;20392;-76
2023/10/10 16:56:26;;;;;;;1.20;1.10;;;;;;;;;;5016529;28;20377;-77
2023/10/10 16:58:52;;;;;;;1.20;0.60;;;;;;;;;;5020092;28;20029;-77
2023/10/10 17:01:22;;;;;;;1.10;0.88;;;;;;;;;;5020251;28;20033;-77
2023/10/10 17:03:49;;;;;;;0.70;0.70;;;;;;;;;;5002843;28;20030;-78
2023/10/10 17:06:22;;;;;;;0.80;0.80;;;;;;;;;;5016731;28;20025;-77
2023/10/10 17:08:59;;;;;;;0.68;0.68;;;;;;;;;;5017380;28;20623;-76
2023/10/10 17:11:25;;;;;;;0.85;0.70;;;;;;;;;;5018130;28;20060;-76
2023/10/10 17:13:53;;;;;;;0.65;0.65;;;;;;;;;;5018709;28;20540;-77
2023/10/10 17:16:29;;;;;;;0.80;0.77;;;;;;;;;;5018619;28;20014;-77
2023/10/10 17:18:56;;;;;;;0.60;0.60;;;;;;;;;;5011967;28;20022;-76
2023/10/10 17:21:23;;;;;;;0.50;0.50;;;;;;;;;;5031334;28;20057;-76
2023/10/10 17:23:50;;;;;;;0.50;0.50;;;;;;;;;;5031158;28;20054;-77
2023/10/10 17:26:20;;;;;;;0.60;0.60;;;;;;;;;;5034145;28;20030;-76
2023/10/10 17:28:48;;;;;;;0.77;0.77;;;;;;;;;;5033561;28;20093;-76
2023/10/10 17:31:23;;;;;;;0.40;0.40;;;;;;;;;;5025689;28;20100;-75
2023/10/10 17:33:52;;;;;;;0.90;0.80;;;;;;;;;;5002889;28;20172;-77
2023/10/10 17:36:19;;;;;;;0.35;0.35;;;;;;;;;;5020743;28;20025;-77
2023/10/10 17:38:47;;;;;;;0.63;0.63;;;;;;;;;;5017992;28;20050;-77
2023/10/10 17:41:13;;;;;;;0.43;0.43;;;;;;;;;;5016509;28;20052;-76
2023/10/10 17:43:39;;;;;;;0.65;0.65;;;;;;;;;;5016878;28;20100;-77
2023/10/10 17:46:05;;;;;;;0.50;0.50;;;;;;;;;;4999808;28;20026;-77